Curlew, Washington
Current Conditions -  °F | °C
As of 4:53 PM on Saturday 25 Oct 2014 (Local Time) from KOMK Reporting Station
Light Rain Light Rain  
Wind Chill: 51°   Ceiling: 9000
Heat Index: 51°   Visibility: 10mi
Dew Point: 46°   Wind: 3mph
Humidity: 83%   Direction: 160°SSE
Pressure: 29.48"   Gusts: NA
Location:  48.89°N, 118.6°W
Report Text: KOMK 252353Z AUTO 16003KT 10SM -RA FEW060 BKN090 OVC100 11/08 A2948 RMK AO2 RAB31 SLP985 P0000 60000 T01060078 10111 20078 56025
Loading
Personal Weather Stations






























Interactive Weather Map
Tropical Storm Tracking
New forecast layout! Learn more

10-Day Weather Forecast

Advertisements
Track Severe Weather on mobile